sensor_id;sensor_type;location;lat;lon;timestamp;temperature;humidity
26224;DHT22;14820;48.682;8.890;2023-04-01T00:01:35;7.80;99.90
26224;DHT22;14820;48.682;8.890;2023-04-01T00:04:01;7.90;99.90
26224;DHT22;14820;48.682;8.890;2023-04-01T00:06:27;7.80;99.90
26224;DHT22;14820;48.682;8.890;2023-04-01T00:08:53;7.80;99.90
26224;DHT22;14820;48.682;8.890;2023-04-01T00:11:19;7.80;99.90
26224;DHT22;14820;48.682;8.890;2023-04-01T00:13:46;7.80;99.90
26224;DHT22;14820;48.682;8.890;2023-04-01T00:16:12;7.90;99.90
26224;DHT22;14820;48.682;8.890;2023-04-01T00:18:38;7.80;99.90
26224;DHT22;14820;48.682;8.890;2023-04-01T00:21:04;7.90;99.90
26224;DHT22;14820;48.682;8.890;2023-04-01T00:23:30;7.80;99.90
26224;DHT22;14820;48.682;8.890;2023-04-01T00:25:58;7.90;99.90
26224;DHT22;14820;48.682;8.890;2023-04-01T00:28:24;7.90;99.90
26224;DHT22;14820;48.682;8.890;2023-04-01T00:30:50;7.80;99.90
26224;DHT22;14820;48.682;8.890;2023-04-01T00:33:16;7.80;99.90
26224;DHT22;14820;48.682;8.890;2023-04-01T00:35:42;7.90;99.90
26224;DHT22;14820;48.682;8.890;2023-04-01T00:38:07;7.90;99.90
26224;DHT22;14820;48.682;8.890;2023-04-01T00:40:44;7.90;99.90
26224;DHT22;14820;48.682;8.890;2023-04-01T00:43:14;7.90;99.90
26224;DHT22;14820;48.682;8.890;2023-04-01T00:45:42;7.90;99.90
26224;DHT22;14820;48.682;8.890;2023-04-01T00:48:14;7.80;99.90
26224;DHT22;14820;48.682;8.890;2023-04-01T00:50:43;7.80;99.90
26224;DHT22;14820;48.682;8.890;2023-04-01T00:53:10;7.80;99.90
26224;DHT22;14820;48.682;8.890;2023-04-01T00:55:39;7.80;99.90
26224;DHT22;14820;48.682;8.890;2023-04-01T00:58:10;7.80;99.90
26224;DHT22;14820;48.682;8.890;2023-04-01T01:00:39;7.80;99.90
26224;DHT22;14820;48.682;8.890;2023-04-01T01:03:05;7.80;99.90
26224;DHT22;14820;48.682;8.890;2023-04-01T01:05:55;7.70;99.90
26224;DHT22;14820;48.682;8.890;2023-04-01T01:11:10;7.80;99.90
26224;DHT22;14820;48.682;8.890;2023-04-01T01:16:27;7.80;99.90
26224;DHT22;14820;48.682;8.890;2023-04-01T01:27:10;7.70;99.90
26224;DHT22;14820;48.682;8.890;2023-04-01T01:31:07;7.70;99.90
26224;DHT22;14820;48.682;8.890;2023-04-01T01:38:11;7.70;99.90
26224;DHT22;14820;48.682;8.890;2023-04-01T01:40:41;7.60;99.90
26224;DHT22;14820;48.682;8.890;2023-04-01T01:43:12;7.60;99.90
26224;DHT22;14820;48.682;8.890;2023-04-01T01:45:44;7.60;99.90
26224;DHT22;14820;48.682;8.890;2023-04-01T01:48:11;7.60;99.90
26224;DHT22;14820;48.682;8.890;2023-04-01T01:50:38;7.60;99.90
26224;DHT22;14820;48.682;8.890;2023-04-01T01:53:07;7.60;99.90
26224;DHT22;14820;48.682;8.890;2023-04-01T01:55:42;7.60;99.90
26224;DHT22;14820;48.682;8.890;2023-04-01T01:58:30;7.60;99.90
26224;DHT22;14820;48.682;8.890;2023-04-01T02:00:59;7.60;99.90
26224;DHT22;14820;48.682;8.890;2023-04-01T02:03:29;7.60;99.90
26224;DHT22;14820;48.682;8.890;2023-04-01T02:05:58;7.60;99.90
26224;DHT22;14820;48.682;8.890;2023-04-01T02:11:07;7.60;99.90
26224;DHT22;14820;48.682;8.890;2023-04-01T02:16:16;7.60;99.90
26224;DHT22;14820;48.682;8.890;2023-04-01T02:18:45;7.60;99.90
26224;DHT22;14820;48.682;8.890;2023-04-01T02:21:12;7.60;99.90
26224;DHT22;14820;48.682;8.890;2023-04-01T02:23:38;7.50;99.90
26224;DHT22;14820;48.682;8.890;2023-04-01T02:26:07;7.50;99.90
26224;DHT22;14820;48.682;8.890;2023-04-01T02:28:37;7.50;99.90
26224;DHT22;14820;48.682;8.890;2023-04-01T02:31:03;7.50;99.90
26224;DHT22;14820;48.682;8.890;2023-04-01T02:33:30;7.50;99.90
26224;DHT22;14820;48.682;8.890;2023-04-01T02:35:57;7.50;99.90
26224;DHT22;14820;48.682;8.890;2023-04-01T02:38:23;7.60;99.90
26224;DHT22;14820;48.682;8.890;2023-04-01T02:40:52;7.60;99.90
26224;DHT22;14820;48.682;8.890;2023-04-01T02:43:21;7.50;99.90
26224;DHT22;14820;48.682;8.890;2023-04-01T02:45:47;7.50;99.90
26224;DHT22;14820;48.682;8.890;2023-04-01T02:48:13;7.40;99.90
26224;DHT22;14820;48.682;8.890;2023-04-01T02:50:39;7.40;99.90
26224;DHT22;14820;48.682;8.890;2023-04-01T02:53:05;7.50;99.90
26224;DHT22;14820;48.682;8.890;2023-04-01T02:55:32;7.40;99.90
26224;DHT22;14820;48.682;8.890;2023-04-01T02:57:58;7.40;99.90
26224;DHT22;14820;48.682;8.890;2023-04-01T03:00:25;7.40;99.90
26224;DHT22;14820;48.682;8.890;2023-04-01T03:02:51;7.40;99.90
26224;DHT22;14820;48.682;8.890;2023-04-01T03:05:17;7.40;99.90
26224;DHT22;14820;48.682;8.890;2023-04-01T03:07:43;7.40;99.90
26224;DHT22;14820;48.682;8.890;2023-04-01T03:10:09;7.40;99.90
26224;DHT22;14820;48.682;8.890;2023-04-01T03:12:35;7.40;99.90
26224;DHT22;14820;48.682;8.890;2023-04-01T03:15:01;7.40;99.90
26224;DHT22;14820;48.682;8.890;2023-04-01T03:17:27;7.30;99.90
26224;DHT22;14820;48.682;8.890;2023-04-01T03:19:52;7.40;99.90
26224;DHT22;14820;48.682;8.890;2023-04-01T03:22:18;7.30;99.90
26224;DHT22;14820;48.682;8.890;2023-04-01T03:24:46;7.40;99.90
26224;DHT22;14820;48.682;8.890;2023-04-01T03:27:12;7.30;99.90
26224;DHT22;14820;48.682;8.890;2023-04-01T03:29:38;7.30;99.90
26224;DHT22;14820;48.682;8.890;2023-04-01T03:32:04;7.30;99.90
26224;DHT22;14820;48.682;8.890;2023-04-01T03:34:30;7.30;99.90
26224;DHT22;14820;48.682;8.890;2023-04-01T03:36:56;7.30;99.90
26224;DHT22;14820;48.682;8.890;2023-04-01T03:39:22;7.20;99.90
26224;DHT22;14820;48.682;8.890;2023-04-01T03:41:47;7.20;99.90
26224;DHT22;14820;48.682;8.890;2023-04-01T03:44:13;7.20;99.90
26224;DHT22;14820;48.682;8.890;2023-04-01T03:46:39;7.20;99.90
26224;DHT22;14820;48.682;8.890;2023-04-01T03:49:09;7.20;99.90
26224;DHT22;14820;48.682;8.890;2023-04-01T03:51:38;7.20;99.90
26224;DHT22;14820;48.682;8.890;2023-04-01T03:54:04;7.20;99.90
26224;DHT22;14820;48.682;8.890;2023-04-01T03:56:30;7.10;99.90
26224;DHT22;14820;48.682;8.890;2023-04-01T03:58:56;7.10;99.90
26224;DHT22;14820;48.682;8.890;2023-04-01T04:01:22;7.20;99.90
26224;DHT22;14820;48.682;8.890;2023-04-01T04:03:48;7.00;99.90
26224;DHT22;14820;48.682;8.890;2023-04-01T04:06:16;7.00;99.90
26224;DHT22;14820;48.682;8.890;2023-04-01T04:08:42;7.00;99.90
26224;DHT22;14820;48.682;8.890;2023-04-01T04:11:08;7.00;99.90
26224;DHT22;14820;48.682;8.890;2023-04-01T04:13:34;7.00;99.90
26224;DHT22;14820;48.682;8.890;2023-04-01T04:16:01;7.00;99.90
26224;DHT22;14820;48.682;8.890;2023-04-01T04:18:27;7.00;99.90
26224;DHT22;14820;48.682;8.890;2023-04-01T04:20:53;7.00;99.90
26224;DHT22;14820;48.682;8.890;2023-04-01T04:23:19;7.00;99.90
26224;DHT22;14820;48.682;8.890;2023-04-01T04:26:05;7.00;99.90
26224;DHT22;14820;48.682;8.890;2023-04-01T04:28:32;7.00;99.90
26224;DHT22;14820;48.682;8.890;2023-04-01T04:30:58;7.00;99.90
26224;DHT22;14820;48.682;8.890;2023-04-01T04:33:24;7.00;99.90
26224;DHT22;14820;48.682;8.890;2023-04-01T04:35:50;7.00;99.90
26224;DHT22;14820;48.682;8.890;2023-04-01T04:38:17;7.00;99.90
26224;DHT22;14820;48.682;8.890;2023-04-01T04:40:43;7.00;99.90
26224;DHT22;14820;48.682;8.890;2023-04-01T04:43:13;7.00;99.90
26224;DHT22;14820;48.682;8.890;2023-04-01T04:45:40;7.00;99.90
26224;DHT22;14820;48.682;8.890;2023-04-01T04:48:08;7.00;99.90
26224;DHT22;14820;48.682;8.890;2023-04-01T04:50:33;7.00;99.90
26224;DHT22;14820;48.682;8.890;2023-04-01T04:52:59;7.10;99.90
26224;DHT22;14820;48.682;8.890;2023-04-01T04:55:28;7.10;99.90
26224;DHT22;14820;48.682;8.890;2023-04-01T04:57:53;7.10;99.90
26224;DHT22;14820;48.682;8.890;2023-04-01T05:00:22;7.10;99.90
26224;DHT22;14820;48.682;8.890;2023-04-01T05:02:48;7.20;99.90
26224;DHT22;14820;48.682;8.890;2023-04-01T05:05:13;7.20;99.90
26224;DHT22;14820;48.682;8.890;2023-04-01T05:07:39;7.20;99.90
26224;DHT22;14820;48.682;8.890;2023-04-01T05:10:08;7.20;99.90
26224;DHT22;14820;48.682;8.890;2023-04-01T05:12:34;7.30;99.90
26224;DHT22;14820;48.682;8.890;2023-04-01T05:15:06;7.30;99.90
26224;DHT22;14820;48.682;8.890;2023-04-01T05:17:32;7.30;99.90
26224;DHT22;14820;48.682;8.890;2023-04-01T05:19:58;7.30;99.90
26224;DHT22;14820;48.682;8.890;2023-04-01T05:22:24;7.30;99.90
26224;DHT22;14820;48.682;8.890;2023-04-01T05:24:50;7.30;99.90
26224;DHT22;14820;48.682;8.890;2023-04-01T05:27:15;7.30;99.90
26224;DHT22;14820;48.682;8.890;2023-04-01T05:29:41;7.30;99.90
26224;DHT22;14820;48.682;8.890;2023-04-01T05:32:07;7.40;99.90
26224;DHT22;14820;48.682;8.890;2023-04-01T05:34:32;7.40;99.90
26224;DHT22;14820;48.682;8.890;2023-04-01T05:36:58;7.30;99.90
26224;DHT22;14820;48.682;8.890;2023-04-01T05:39:24;7.30;99.90
26224;DHT22;14820;48.682;8.890;2023-04-01T05:41:49;7.30;99.90
26224;DHT22;14820;48.682;8.890;2023-04-01T05:44:15;7.30;99.90
26224;DHT22;14820;48.682;8.890;2023-04-01T05:46:41;7.40;99.90
26224;DHT22;14820;48.682;8.890;2023-04-01T05:49:07;7.40;99.90
26224;DHT22;14820;48.682;8.890;2023-04-01T05:51:33;7.40;99.90
26224;DHT22;14820;48.682;8.890;2023-04-01T05:53:58;7.40;99.90
26224;DHT22;14820;48.682;8.890;2023-04-01T05:56:24;7.50;99.90
26224;DHT22;14820;48.682;8.890;2023-04-01T05:58:53;7.50;99.90
26224;DHT22;14820;48.682;8.890;2023-04-01T06:01:19;7.50;99.90
26224;DHT22;14820;48.682;8.890;2023-04-01T06:03:46;7.50;99.90
26224;DHT22;14820;48.682;8.890;2023-04-01T06:06:18;7.50;99.90
26224;DHT22;14820;48.682;8.890;2023-04-01T06:08:45;7.50;99.90
26224;DHT22;14820;48.682;8.890;2023-04-01T06:11:34;7.50;99.90
26224;DHT22;14820;48.682;8.890;2023-04-01T06:14:16;7.60;99.90
26224;DHT22;14820;48.682;8.890;2023-04-01T06:19:50;7.50;99.90
26224;DHT22;14820;48.682;8.890;2023-04-01T06:25:07;7.50;99.90
26224;DHT22;14820;48.682;8.890;2023-04-01T06:45:14;7.40;99.90
26224;DHT22;14820;48.682;8.890;2023-04-01T06:48:05;7.40;99.90
26224;DHT22;14820;48.682;8.890;2023-04-01T06:56:02;7.40;99.90
26224;DHT22;14820;48.682;8.890;2023-04-01T06:58:37;7.50;99.90
26224;DHT22;14820;48.682;8.890;2023-04-01T07:01:08;7.50;99.90
26224;DHT22;14820;48.682;8.890;2023-04-01T07:04:14;7.50;99.90
26224;DHT22;14820;48.682;8.890;2023-04-01T07:09:13;7.50;99.90
26224;DHT22;14820;48.682;8.890;2023-04-01T07:11:40;7.50;99.90
26224;DHT22;14820;48.682;8.890;2023-04-01T07:14:28;7.50;99.90
26224;DHT22;14820;48.682;8.890;2023-04-01T07:17:17;7.50;99.90
26224;DHT22;14820;48.682;8.890;2023-04-01T07:22:23;7.40;99.90
26224;DHT22;14820;48.682;8.890;2023-04-01T07:24:52;7.50;99.90
26224;DHT22;14820;48.682;8.890;2023-04-01T07:27:19;7.50;99.90
26224;DHT22;14820;48.682;8.890;2023-04-01T07:29:44;7.50;99.90
26224;DHT22;14820;48.682;8.890;2023-04-01T07:32:28;7.50;99.90
26224;DHT22;14820;48.682;8.890;2023-04-01T07:35:13;7.50;99.90
26224;DHT22;14820;48.682;8.890;2023-04-01T07:46:23;7.60;99.90
26224;DHT22;14820;48.682;8.890;2023-04-01T07:49:04;7.60;99.90
26224;DHT22;14820;48.682;8.890;2023-04-01T07:51:41;7.70;99.90
26224;DHT22;14820;48.682;8.890;2023-04-01T07:54:28;7.60;99.90
26224;DHT22;14820;48.682;8.890;2023-04-01T07:57:16;7.70;99.90
26224;DHT22;14820;48.682;8.890;2023-04-01T08:02:36;7.70;99.90
26224;DHT22;14820;48.682;8.890;2023-04-01T08:05:25;7.70;99.90
26224;DHT22;14820;48.682;8.890;2023-04-01T08:08:36;7.70;99.90
26224;DHT22;14820;48.682;8.890;2023-04-01T08:11:28;7.70;99.90
26224;DHT22;14820;48.682;8.890;2023-04-01T08:17:05;7.70;99.90
26224;DHT22;14820;48.682;8.890;2023-04-01T08:20:53;7.70;99.90
26224;DHT22;14820;48.682;8.890;2023-04-01T08:22:51;7.70;99.90
26224;DHT22;14820;48.682;8.890;2023-04-01T08:25:23;7.60;99.90
26224;DHT22;14820;48.682;8.890;2023-04-01T08:28:10;7.60;99.90
26224;DHT22;14820;48.682;8.890;2023-04-01T08:33:20;7.60;99.90
26224;DHT22;14820;48.682;8.890;2023-04-01T08:43:22;7.60;99.90
26224;DHT22;14820;48.682;8.890;2023-04-01T08:49:15;7.60;99.90
26224;DHT22;14820;48.682;8.890;2023-04-01T08:57:15;7.60;99.90
26224;DHT22;14820;48.682;8.890;2023-04-01T09:03:10;7.70;99.90
26224;DHT22;14820;48.682;8.890;2023-04-01T09:14:02;7.90;99.90
26224;DHT22;14820;48.682;8.890;2023-04-01T09:19:01;8.00;99.90
26224;DHT22;14820;48.682;8.890;2023-04-01T09:21:57;8.00;99.90
26224;DHT22;14820;48.682;8.890;2023-04-01T09:33:24;8.10;99.90
26224;DHT22;14820;48.682;8.890;2023-04-01T09:36:12;8.20;99.90
26224;DHT22;14820;48.682;8.890;2023-04-01T09:39:18;8.10;99.90
26224;DHT22;14820;48.682;8.890;2023-04-01T09:44:25;8.10;99.90
26224;DHT22;14820;48.682;8.890;2023-04-01T10:03:07;8.10;99.90
26224;DHT22;14820;48.682;8.890;2023-04-01T10:09:05;8.00;99.90
26224;DHT22;14820;48.682;8.890;2023-04-01T10:25:55;8.30;99.90
26224;DHT22;14820;48.682;8.890;2023-04-01T10:34:31;8.60;99.90
26224;DHT22;14820;48.682;8.890;2023-04-01T10:48:18;8.80;99.90
26224;DHT22;14820;48.682;8.890;2023-04-01T11:13:47;8.90;99.90
26224;DHT22;14820;48.682;8.890;2023-04-01T11:22:24;8.90;99.90
26224;DHT22;14820;48.682;8.890;2023-04-01T11:25:05;9.00;99.90
26224;DHT22;14820;48.682;8.890;2023-04-01T11:40:41;9.00;99.90
26224;DHT22;14820;48.682;8.890;2023-04-01T11:48:49;9.20;99.90
26224;DHT22;14820;48.682;8.890;2023-04-01T12:00:18;9.50;99.90
26224;DHT22;14820;48.682;8.890;2023-04-01T12:08:47;9.70;99.90
26224;DHT22;14820;48.682;8.890;2023-04-01T12:14:02;9.60;99.90
26224;DHT22;14820;48.682;8.890;2023-04-01T12:17:01;9.50;99.90
26224;DHT22;14820;48.682;8.890;2023-04-01T12:22:12;9.40;99.90
26224;DHT22;14820;48.682;8.890;2023-04-01T12:24:55;9.40;99.90
26224;DHT22;14820;48.682;8.890;2023-04-01T12:27:45;9.30;99.90
26224;DHT22;14820;48.682;8.890;2023-04-01T12:33:45;9.30;99.90
26224;DHT22;14820;48.682;8.890;2023-04-01T12:44:37;9.60;99.90
26224;DHT22;14820;48.682;8.890;2023-04-01T12:52:20;9.60;99.90
26224;DHT22;14820;48.682;8.890;2023-04-01T13:14:24;9.70;99.90
26224;DHT22;14820;48.682;8.890;2023-04-01T13:17:23;9.80;99.90
26224;DHT22;14820;48.682;8.890;2023-04-01T13:20:00;9.80;99.90
26224;DHT22;14820;48.682;8.890;2023-04-01T13:27:49;9.70;99.90
26224;DHT22;14820;48.682;8.890;2023-04-01T13:39:11;9.60;99.90
26224;DHT22;14820;48.682;8.890;2023-04-01T13:41:41;9.60;99.90
26224;DHT22;14820;48.682;8.890;2023-04-01T13:44:16;9.50;99.90
26224;DHT22;14820;48.682;8.890;2023-04-01T13:53:06;9.50;99.90
26224;DHT22;14820;48.682;8.890;2023-04-01T14:09:45;9.50;99.90
26224;DHT22;14820;48.682;8.890;2023-04-01T14:15:24;9.50;99.90
26224;DHT22;14820;48.682;8.890;2023-04-01T14:21:19;9.60;99.90
26224;DHT22;14820;48.682;8.890;2023-04-01T14:24:13;9.60;99.90
26224;DHT22;14820;48.682;8.890;2023-04-01T14:30:51;9.70;99.90
26224;DHT22;14820;48.682;8.890;2023-04-01T14:32:51;9.80;99.90
26224;DHT22;14820;48.682;8.890;2023-04-01T14:38:27;9.80;99.90
26224;DHT22;14820;48.682;8.890;2023-04-01T14:49:23;9.60;99.90
26224;DHT22;14820;48.682;8.890;2023-04-01T14:51:52;9.60;99.90
26224;DHT22;14820;48.682;8.890;2023-04-01T14:54:21;9.60;99.90
26224;DHT22;14820;48.682;8.890;2023-04-01T14:57:15;9.60;99.90
26224;DHT22;14820;48.682;8.890;2023-04-01T15:00:14;9.60;99.90
26224;DHT22;14820;48.682;8.890;2023-04-01T15:02:57;9.60;99.90
26224;DHT22;14820;48.682;8.890;2023-04-01T15:08:30;9.60;99.90
26224;DHT22;14820;48.682;8.890;2023-04-01T15:11:12;9.70;99.90
26224;DHT22;14820;48.682;8.890;2023-04-01T15:28:08;9.80;99.90
26224;DHT22;14820;48.682;8.890;2023-04-01T15:39:53;9.80;99.90
26224;DHT22;14820;48.682;8.890;2023-04-01T15:45:18;9.70;99.90
26224;DHT22;14820;48.682;8.890;2023-04-01T15:56:22;9.60;99.90
26224;DHT22;14820;48.682;8.890;2023-04-01T15:59:21;9.60;99.90
26224;DHT22;14820;48.682;8.890;2023-04-01T16:02:07;9.60;99.90
26224;DHT22;14820;48.682;8.890;2023-04-01T16:07:43;9.70;99.90
26224;DHT22;14820;48.682;8.890;2023-04-01T16:19:05;9.90;99.90
26224;DHT22;14820;48.682;8.890;2023-04-01T16:21:38;9.90;99.90
26224;DHT22;14820;48.682;8.890;2023-04-01T16:24:40;9.90;99.90
26224;DHT22;14820;48.682;8.890;2023-04-01T16:29:46;9.90;99.90
26224;DHT22;14820;48.682;8.890;2023-04-01T16:37:58;9.70;99.90
26224;DHT22;14820;48.682;8.890;2023-04-01T16:43:35;9.50;99.90
26224;DHT22;14820;48.682;8.890;2023-04-01T16:51:48;9.50;99.90
26224;DHT22;14820;48.682;8.890;2023-04-01T17:02:47;9.40;99.90
26224;DHT22;14820;48.682;8.890;2023-04-01T17:05:14;9.30;99.90
26224;DHT22;14820;48.682;8.890;2023-04-01T17:08:06;9.30;99.90
26224;DHT22;14820;48.682;8.890;2023-04-01T17:16:37;9.40;99.90
26224;DHT22;14820;48.682;8.890;2023-04-01T17:27:54;9.30;99.90
26224;DHT22;14820;48.682;8.890;2023-04-01T17:30:27;9.30;99.90
26224;DHT22;14820;48.682;8.890;2023-04-01T17:46:28;9.20;99.90
26224;DHT22;14820;48.682;8.890;2023-04-01T17:57:10;9.10;99.90
26224;DHT22;14820;48.682;8.890;2023-04-01T18:08:17;8.60;99.90
26224;DHT22;14820;48.682;8.890;2023-04-01T18:11:03;8.50;99.90
26224;DHT22;14820;48.682;8.890;2023-04-01T18:19:14;8.20;99.90
26224;DHT22;14820;48.682;8.890;2023-04-01T18:21:51;8.20;99.90
26224;DHT22;14820;48.682;8.890;2023-04-01T18:24:58;8.20;99.90
26224;DHT22;14820;48.682;8.890;2023-04-01T18:27:30;8.20;99.90
26224;DHT22;14820;48.682;8.890;2023-04-01T18:33:00;8.20;99.90
26224;DHT22;14820;48.682;8.890;2023-04-01T18:35:47;8.10;99.90
26224;DHT22;14820;48.682;8.890;2023-04-01T18:38:29;8.10;99.90
26224;DHT22;14820;48.682;8.890;2023-04-01T18:41:22;8.00;99.90
26224;DHT22;14820;48.682;8.890;2023-04-01T18:44:25;8.00;99.90
26224;DHT22;14820;48.682;8.890;2023-04-01T18:47:05;8.00;99.90
26224;DHT22;14820;48.682;8.890;2023-04-01T18:49:43;8.00;99.90
26224;DHT22;14820;48.682;8.890;2023-04-01T18:52:33;7.90;99.90
26224;DHT22;14820;48.682;8.890;2023-04-01T18:57:47;7.80;99.90
26224;DHT22;14820;48.682;8.890;2023-04-01T19:00:25;7.70;99.90
26224;DHT22;14820;48.682;8.890;2023-04-01T19:03:02;7.70;99.90
26224;DHT22;14820;48.682;8.890;2023-04-01T19:05:40;7.60;99.90
26224;DHT22;14820;48.682;8.890;2023-04-01T19:08:35;7.60;99.90
26224;DHT22;14820;48.682;8.890;2023-04-01T19:11:30;7.60;99.90
26224;DHT22;14820;48.682;8.890;2023-04-01T19:14:00;7.60;99.90
26224;DHT22;14820;48.682;8.890;2023-04-01T19:21:59;7.50;99.90
26224;DHT22;14820;48.682;8.890;2023-04-01T19:27:28;7.60;99.90
26224;DHT22;14820;48.682;8.890;2023-04-01T19:41:00;7.50;99.90
26224;DHT22;14820;48.682;8.890;2023-04-01T19:51:25;7.40;99.90
26224;DHT22;14820;48.682;8.890;2023-04-01T20:04:42;7.20;99.90
26224;DHT22;14820;48.682;8.890;2023-04-01T20:10:13;7.20;99.90
26224;DHT22;14820;48.682;8.890;2023-04-01T20:15:34;7.30;99.90
26224;DHT22;14820;48.682;8.890;2023-04-01T20:18:02;7.30;99.90
26224;DHT22;14820;48.682;8.890;2023-04-01T20:20:31;7.30;99.90
26224;DHT22;14820;48.682;8.890;2023-04-01T20:25:58;7.40;99.90
26224;DHT22;14820;48.682;8.890;2023-04-01T20:42:27;7.50;99.90
26224;DHT22;14820;48.682;8.890;2023-04-01T20:50:28;7.50;99.90
26224;DHT22;14820;48.682;8.890;2023-04-01T20:53:24;7.50;99.90
26224;DHT22;14820;48.682;8.890;2023-04-01T21:10:09;7.60;99.90
26224;DHT22;14820;48.682;8.890;2023-04-01T21:27:28;7.50;99.90
26224;DHT22;14820;48.682;8.890;2023-04-01T21:39:01;7.50;99.90
26224;DHT22;14820;48.682;8.890;2023-04-01T22:07:06;7.40;99.90
26224;DHT22;14820;48.682;8.890;2023-04-01T22:09:42;7.40;99.90
26224;DHT22;14820;48.682;8.890;2023-04-01T22:15:20;7.30;99.90
26224;DHT22;14820;48.682;8.890;2023-04-01T22:18:07;7.30;99.90
26224;DHT22;14820;48.682;8.890;2023-04-01T22:23:39;7.20;99.90
26224;DHT22;14820;48.682;8.890;2023-04-01T22:31:46;7.20;99.90
26224;DHT22;14820;48.682;8.890;2023-04-01T22:34:45;7.20;99.90
26224;DHT22;14820;48.682;8.890;2023-04-01T22:40:16;7.10;99.90
26224;DHT22;14820;48.682;8.890;2023-04-01T22:43:23;7.10;99.90
26224;DHT22;14820;48.682;8.890;2023-04-01T22:48:35;7.00;99.90
26224;DHT22;14820;48.682;8.890;2023-04-01T22:56:37;6.90;99.90
26224;DHT22;14820;48.682;8.890;2023-04-01T22:59:35;6.90;99.90
26224;DHT22;14820;48.682;8.890;2023-04-01T23:02:09;6.90;99.90
26224;DHT22;14820;48.682;8.890;2023-04-01T23:04:43;6.90;99.90
26224;DHT22;14820;48.682;8.890;2023-04-01T23:07:34;6.80;99.90
26224;DHT22;14820;48.682;8.890;2023-04-01T23:10:06;6.80;99.90
26224;DHT22;14820;48.682;8.890;2023-04-01T23:12:37;6.80;99.90
26224;DHT22;14820;48.682;8.890;2023-04-01T23:15:04;6.70;99.90
26224;DHT22;14820;48.682;8.890;2023-04-01T23:28:37;6.80;99.90
26224;DHT22;14820;48.682;8.890;2023-04-01T23:31:26;6.80;99.90
26224;DHT22;14820;48.682;8.890;2023-04-01T23:34:17;6.70;99.90
26224;DHT22;14820;48.682;8.890;2023-04-01T23:36:48;6.70;99.90
26224;DHT22;14820;48.682;8.890;2023-04-01T23:39:32;6.80;99.90
26224;DHT22;14820;48.682;8.890;2023-04-01T23:44:33;6.70;99.90
26224;DHT22;14820;48.682;8.890;2023-04-01T23:47:00;6.70;99.90
26224;DHT22;14820;48.682;8.890;2023-04-01T23:49:38;6.70;99.90
26224;DHT22;14820;48.682;8.890;2023-04-01T23:52:12;6.70;99.90
26224;DHT22;14820;48.682;8.890;2023-04-01T23:54:55;6.70;99.90
26224;DHT22;14820;48.682;8.890;2023-04-01T23:57:29;6.70;99.90
